sensor_id;sensor_type;location;lat;lon;timestamp;P1;durP1;ratioP1;P2;durP2;ratioP2
50355;SDS011;36264;51.296;-0.602;2023-07-02T00:00:31;15.23;;;6.97;;
50355;SDS011;36264;51.296;-0.602;2023-07-02T00:02:58;12.10;;;6.32;;
50355;SDS011;36264;51.296;-0.602;2023-07-02T00:05:25;15.23;;;7.10;;
50355;SDS011;36264;51.296;-0.602;2023-07-02T00:07:51;11.32;;;6.22;;
50355;SDS011;36264;51.296;-0.602;2023-07-02T00:10:16;11.80;;;5.50;;
50355;SDS011;36264;51.296;-0.602;2023-07-02T00:12:41;11.95;;;5.93;;
50355;SDS011;36264;51.296;-0.602;2023-07-02T00:15:09;9.07;;;5.18;;
50355;SDS011;36264;51.296;-0.602;2023-07-02T00:17:35;13.85;;;6.85;;
50355;SDS011;36264;51.296;-0.602;2023-07-02T00:20:05;12.70;;;5.47;;
50355;SDS011;36264;51.296;-0.602;2023-07-02T00:22:39;11.27;;;5.20;;
50355;SDS011;36264;51.296;-0.602;2023-07-02T00:25:07;13.10;;;5.68;;
50355;SDS011;36264;51.296;-0.602;2023-07-02T00:27:32;10.15;;;4.72;;
50355;SDS011;36264;51.296;-0.602;2023-07-02T00:29:58;14.05;;;6.32;;
50355;SDS011;36264;51.296;-0.602;2023-07-02T00:32:24;15.82;;;7.20;;
50355;SDS011;36264;51.296;-0.602;2023-07-02T00:34:49;11.15;;;5.85;;
50355;SDS011;36264;51.296;-0.602;2023-07-02T00:37:14;10.25;;;5.38;;
50355;SDS011;36264;51.296;-0.602;2023-07-02T00:39:40;11.32;;;5.30;;
50355;SDS011;36264;51.296;-0.602;2023-07-02T00:42:05;10.98;;;5.13;;
50355;SDS011;36264;51.296;-0.602;2023-07-02T00:44:31;10.82;;;5.28;;
50355;SDS011;36264;51.296;-0.602;2023-07-02T00:46:57;8.50;;;5.03;;
50355;SDS011;36264;51.296;-0.602;2023-07-02T00:49:23;9.85;;;4.45;;
50355;SDS011;36264;51.296;-0.602;2023-07-02T00:51:49;12.40;;;5.28;;
50355;SDS011;36264;51.296;-0.602;2023-07-02T00:54:14;8.98;;;4.57;;
50355;SDS011;36264;51.296;-0.602;2023-07-02T00:56:39;9.10;;;4.63;;
50355;SDS011;36264;51.296;-0.602;2023-07-02T00:59:05;10.93;;;4.70;;
50355;SDS011;36264;51.296;-0.602;2023-07-02T01:01:31;9.20;;;4.57;;
50355;SDS011;36264;51.296;-0.602;2023-07-02T01:04:03;9.85;;;5.63;;
50355;SDS011;36264;51.296;-0.602;2023-07-02T01:06:34;9.50;;;5.00;;
50355;SDS011;36264;51.296;-0.602;2023-07-02T01:09:01;9.85;;;5.03;;
50355;SDS011;36264;51.296;-0.602;2023-07-02T01:11:29;8.60;;;4.60;;
50355;SDS011;36264;51.296;-0.602;2023-07-02T01:14:00;11.13;;;5.15;;
50355;SDS011;36264;51.296;-0.602;2023-07-02T01:16:33;11.27;;;5.25;;
50355;SDS011;36264;51.296;-0.602;2023-07-02T01:19:01;10.05;;;5.25;;
50355;SDS011;36264;51.296;-0.602;2023-07-02T01:21:30;10.20;;;4.70;;
50355;SDS011;36264;51.296;-0.602;2023-07-02T01:24:00;9.75;;;4.60;;
50355;SDS011;36264;51.296;-0.602;2023-07-02T01:26:30;9.65;;;4.68;;
50355;SDS011;36264;51.296;-0.602;2023-07-02T01:28:56;9.20;;;4.93;;
50355;SDS011;36264;51.296;-0.602;2023-07-02T01:31:21;10.13;;;4.68;;
50355;SDS011;36264;51.296;-0.602;2023-07-02T01:33:50;9.63;;;5.45;;
50355;SDS011;36264;51.296;-0.602;2023-07-02T01:36:15;14.25;;;6.25;;
50355;SDS011;36264;51.296;-0.602;2023-07-02T01:38:40;8.65;;;4.40;;
50355;SDS011;36264;51.296;-0.602;2023-07-02T01:41:06;9.30;;;4.55;;
50355;SDS011;36264;51.296;-0.602;2023-07-02T01:43:32;8.95;;;4.57;;
50355;SDS011;36264;51.296;-0.602;2023-07-02T01:45:57;10.43;;;4.40;;
50355;SDS011;36264;51.296;-0.602;2023-07-02T01:48:22;11.70;;;5.25;;
50355;SDS011;36264;51.296;-0.602;2023-07-02T01:50:48;13.63;;;6.32;;
50355;SDS011;36264;51.296;-0.602;2023-07-02T01:53:13;12.40;;;4.95;;
50355;SDS011;36264;51.296;-0.602;2023-07-02T01:55:38;11.65;;;5.88;;
50355;SDS011;36264;51.296;-0.602;2023-07-02T01:58:04;12.82;;;6.18;;
50355;SDS011;36264;51.296;-0.602;2023-07-02T02:00:29;12.25;;;5.53;;
50355;SDS011;36264;51.296;-0.602;2023-07-02T02:02:54;10.38;;;5.22;;
50355;SDS011;36264;51.296;-0.602;2023-07-02T02:05:20;10.57;;;5.07;;
50355;SDS011;36264;51.296;-0.602;2023-07-02T02:07:45;10.43;;;4.80;;
50355;SDS011;36264;51.296;-0.602;2023-07-02T02:10:11;9.25;;;4.82;;
50355;SDS011;36264;51.296;-0.602;2023-07-02T02:12:36;10.30;;;5.05;;
50355;SDS011;36264;51.296;-0.602;2023-07-02T02:15:01;11.80;;;4.95;;
50355;SDS011;36264;51.296;-0.602;2023-07-02T02:17:27;9.40;;;4.72;;
50355;SDS011;36264;51.296;-0.602;2023-07-02T02:19:52;11.80;;;4.88;;
50355;SDS011;36264;51.296;-0.602;2023-07-02T02:22:18;8.85;;;4.57;;
50355;SDS011;36264;51.296;-0.602;2023-07-02T02:24:43;8.35;;;4.38;;
50355;SDS011;36264;51.296;-0.602;2023-07-02T02:27:08;9.43;;;4.70;;
50355;SDS011;36264;51.296;-0.602;2023-07-02T02:29:34;9.10;;;4.55;;
50355;SDS011;36264;51.296;-0.602;2023-07-02T02:31:59;9.02;;;4.30;;
50355;SDS011;36264;51.296;-0.602;2023-07-02T02:34:25;7.30;;;4.03;;
50355;SDS011;36264;51.296;-0.602;2023-07-02T02:36:50;10.77;;;4.65;;
50355;SDS011;36264;51.296;-0.602;2023-07-02T02:39:15;9.73;;;4.18;;
50355;SDS011;36264;51.296;-0.602;2023-07-02T02:41:41;10.13;;;4.03;;
50355;SDS011;36264;51.296;-0.602;2023-07-02T02:44:06;9.20;;;4.63;;
50355;SDS011;36264;51.296;-0.602;2023-07-02T02:46:32;8.63;;;3.85;;
50355;SDS011;36264;51.296;-0.602;2023-07-02T02:48:57;8.13;;;3.85;;
50355;SDS011;36264;51.296;-0.602;2023-07-02T02:51:22;15.43;;;7.05;;
50355;SDS011;36264;51.296;-0.602;2023-07-02T02:53:48;11.55;;;5.75;;
50355;SDS011;36264;51.296;-0.602;2023-07-02T02:56:13;9.05;;;4.43;;
50355;SDS011;36264;51.296;-0.602;2023-07-02T02:58:39;8.93;;;4.35;;
50355;SDS011;36264;51.296;-0.602;2023-07-02T03:01:05;8.68;;;4.18;;
50355;SDS011;36264;51.296;-0.602;2023-07-02T03:03:35;12.32;;;5.20;;
50355;SDS011;36264;51.296;-0.602;2023-07-02T03:06:04;10.52;;;4.63;;
50355;SDS011;36264;51.296;-0.602;2023-07-02T03:08:29;10.90;;;4.53;;
50355;SDS011;36264;51.296;-0.602;2023-07-02T03:10:54;12.88;;;5.68;;
50355;SDS011;36264;51.296;-0.602;2023-07-02T03:13:20;8.52;;;4.82;;
50355;SDS011;36264;51.296;-0.602;2023-07-02T03:15:45;10.65;;;4.75;;
50355;SDS011;36264;51.296;-0.602;2023-07-02T03:18:11;9.32;;;4.57;;
50355;SDS011;36264;51.296;-0.602;2023-07-02T03:20:36;9.52;;;4.72;;
50355;SDS011;36264;51.296;-0.602;2023-07-02T03:23:01;7.85;;;4.20;;
50355;SDS011;36264;51.296;-0.602;2023-07-02T03:25:27;10.00;;;5.15;;
50355;SDS011;36264;51.296;-0.602;2023-07-02T03:27:52;11.18;;;4.45;;
50355;SDS011;36264;51.296;-0.602;2023-07-02T03:30:17;10.32;;;4.68;;
50355;SDS011;36264;51.296;-0.602;2023-07-02T03:32:43;8.27;;;4.38;;
50355;SDS011;36264;51.296;-0.602;2023-07-02T03:35:08;8.70;;;4.30;;
50355;SDS011;36264;51.296;-0.602;2023-07-02T03:37:34;8.95;;;4.38;;
50355;SDS011;36264;51.296;-0.602;2023-07-02T03:39:59;11.10;;;5.05;;
50355;SDS011;36264;51.296;-0.602;2023-07-02T03:42:24;9.70;;;3.83;;
50355;SDS011;36264;51.296;-0.602;2023-07-02T03:44:50;9.30;;;4.63;;
50355;SDS011;36264;51.296;-0.602;2023-07-02T03:47:15;10.45;;;4.28;;
50355;SDS011;36264;51.296;-0.602;2023-07-02T03:49:41;9.80;;;4.50;;
50355;SDS011;36264;51.296;-0.602;2023-07-02T03:52:07;9.35;;;4.03;;
50355;SDS011;36264;51.296;-0.602;2023-07-02T03:54:32;15.02;;;5.63;;
50355;SDS011;36264;51.296;-0.602;2023-07-02T03:56:57;13.52;;;5.10;;
50355;SDS011;36264;51.296;-0.602;2023-07-02T03:59:23;9.65;;;4.90;;
50355;SDS011;36264;51.296;-0.602;2023-07-02T04:01:48;13.35;;;6.03;;
50355;SDS011;36264;51.296;-0.602;2023-07-02T04:04:14;9.75;;;4.95;;
50355;SDS011;36264;51.296;-0.602;2023-07-02T04:06:40;11.07;;;5.15;;
50355;SDS011;36264;51.296;-0.602;2023-07-02T04:09:05;9.10;;;5.38;;
50355;SDS011;36264;51.296;-0.602;2023-07-02T04:11:30;11.20;;;4.68;;
50355;SDS011;36264;51.296;-0.602;2023-07-02T04:13:56;8.10;;;3.90;;
50355;SDS011;36264;51.296;-0.602;2023-07-02T04:16:21;10.13;;;4.18;;
50355;SDS011;36264;51.296;-0.602;2023-07-02T04:18:46;10.25;;;4.65;;
50355;SDS011;36264;51.296;-0.602;2023-07-02T04:21:12;8.77;;;4.45;;
50355;SDS011;36264;51.296;-0.602;2023-07-02T04:23:37;9.88;;;4.53;;
50355;SDS011;36264;51.296;-0.602;2023-07-02T04:26:03;9.30;;;4.30;;
50355;SDS011;36264;51.296;-0.602;2023-07-02T04:28:28;9.77;;;4.45;;
50355;SDS011;36264;51.296;-0.602;2023-07-02T04:30:53;9.13;;;4.55;;
50355;SDS011;36264;51.296;-0.602;2023-07-02T04:33:19;11.57;;;5.43;;
50355;SDS011;36264;51.296;-0.602;2023-07-02T04:35:44;11.65;;;5.38;;
50355;SDS011;36264;51.296;-0.602;2023-07-02T04:38:09;9.88;;;4.40;;
50355;SDS011;36264;51.296;-0.602;2023-07-02T04:40:35;13.88;;;5.53;;
50355;SDS011;36264;51.296;-0.602;2023-07-02T04:43:00;10.73;;;4.97;;
50355;SDS011;36264;51.296;-0.602;2023-07-02T04:45:27;10.95;;;5.10;;
50355;SDS011;36264;51.296;-0.602;2023-07-02T04:47:57;12.75;;;5.50;;
50355;SDS011;36264;51.296;-0.602;2023-07-02T04:50:22;8.40;;;4.80;;
50355;SDS011;36264;51.296;-0.602;2023-07-02T04:52:48;9.50;;;5.28;;
50355;SDS011;36264;51.296;-0.602;2023-07-02T04:55:13;12.70;;;5.30;;
50355;SDS011;36264;51.296;-0.602;2023-07-02T04:57:38;9.30;;;5.00;;
50355;SDS011;36264;51.296;-0.602;2023-07-02T05:00:04;10.80;;;4.97;;
50355;SDS011;36264;51.296;-0.602;2023-07-02T05:02:31;9.00;;;5.05;;
50355;SDS011;36264;51.296;-0.602;2023-07-02T05:04:56;14.43;;;5.82;;
50355;SDS011;36264;51.296;-0.602;2023-07-02T05:07:25;10.93;;;5.82;;
50355;SDS011;36264;51.296;-0.602;2023-07-02T05:09:50;10.75;;;4.72;;
50355;SDS011;36264;51.296;-0.602;2023-07-02T05:12:17;9.50;;;5.10;;
50355;SDS011;36264;51.296;-0.602;2023-07-02T05:14:43;17.52;;;5.90;;
50355;SDS011;36264;51.296;-0.602;2023-07-02T05:17:08;10.48;;;4.82;;
50355;SDS011;36264;51.296;-0.602;2023-07-02T05:19:34;10.52;;;4.78;;
50355;SDS011;36264;51.296;-0.602;2023-07-02T05:21:59;11.77;;;4.93;;
50355;SDS011;36264;51.296;-0.602;2023-07-02T05:24:24;10.25;;;4.63;;
50355;SDS011;36264;51.296;-0.602;2023-07-02T05:26:50;10.82;;;4.72;;
50355;SDS011;36264;51.296;-0.602;2023-07-02T05:29:15;11.77;;;4.90;;
50355;SDS011;36264;51.296;-0.602;2023-07-02T05:31:41;15.73;;;6.85;;
50355;SDS011;36264;51.296;-0.602;2023-07-02T05:34:07;22.48;;;7.50;;
50355;SDS011;36264;51.296;-0.602;2023-07-02T05:36:32;18.98;;;7.15;;
50355;SDS011;36264;51.296;-0.602;2023-07-02T05:38:59;14.82;;;5.82;;
50355;SDS011;36264;51.296;-0.602;2023-07-02T05:41:25;20.88;;;7.65;;
50355;SDS011;36264;51.296;-0.602;2023-07-02T05:43:55;11.47;;;6.10;;
50355;SDS011;36264;51.296;-0.602;2023-07-02T05:46:21;11.20;;;5.47;;
50355;SDS011;36264;51.296;-0.602;2023-07-02T05:48:46;16.23;;;6.38;;
50355;SDS011;36264;51.296;-0.602;2023-07-02T05:51:11;11.52;;;5.72;;
50355;SDS011;36264;51.296;-0.602;2023-07-02T05:53:37;12.77;;;5.93;;
50355;SDS011;36264;51.296;-0.602;2023-07-02T05:56:02;15.07;;;6.63;;
50355;SDS011;36264;51.296;-0.602;2023-07-02T05:58:28;15.70;;;5.60;;
50355;SDS011;36264;51.296;-0.602;2023-07-02T06:00:55;13.60;;;5.70;;
50355;SDS011;36264;51.296;-0.602;2023-07-02T06:03:20;10.68;;;4.80;;
50355;SDS011;36264;51.296;-0.602;2023-07-02T06:05:48;15.13;;;6.20;;
50355;SDS011;36264;51.296;-0.602;2023-07-02T06:08:17;10.95;;;5.32;;
50355;SDS011;36264;51.296;-0.602;2023-07-02T06:10:43;17.08;;;7.55;;
50355;SDS011;36264;51.296;-0.602;2023-07-02T06:13:11;13.25;;;5.93;;
50355;SDS011;36264;51.296;-0.602;2023-07-02T06:15:36;14.05;;;5.75;;
50355;SDS011;36264;51.296;-0.602;2023-07-02T06:18:02;14.15;;;5.75;;
50355;SDS011;36264;51.296;-0.602;2023-07-02T06:20:27;11.32;;;5.47;;
50355;SDS011;36264;51.296;-0.602;2023-07-02T06:22:53;15.32;;;6.20;;
50355;SDS011;36264;51.296;-0.602;2023-07-02T06:25:18;12.15;;;5.13;;
50355;SDS011;36264;51.296;-0.602;2023-07-02T06:27:43;12.95;;;5.10;;
50355;SDS011;36264;51.296;-0.602;2023-07-02T06:30:09;16.08;;;5.55;;
50355;SDS011;36264;51.296;-0.602;2023-07-02T06:32:34;14.88;;;5.53;;
50355;SDS011;36264;51.296;-0.602;2023-07-02T06:35:00;13.40;;;5.55;;
50355;SDS011;36264;51.296;-0.602;2023-07-02T06:37:25;15.68;;;5.60;;
50355;SDS011;36264;51.296;-0.602;2023-07-02T06:39:50;14.73;;;5.45;;
50355;SDS011;36264;51.296;-0.602;2023-07-02T06:42:16;13.80;;;5.65;;
50355;SDS011;36264;51.296;-0.602;2023-07-02T06:44:41;15.15;;;5.07;;
50355;SDS011;36264;51.296;-0.602;2023-07-02T06:47:07;18.33;;;5.90;;
50355;SDS011;36264;51.296;-0.602;2023-07-02T06:49:32;11.27;;;5.30;;
50355;SDS011;36264;51.296;-0.602;2023-07-02T06:51:58;13.60;;;5.32;;
50355;SDS011;36264;51.296;-0.602;2023-07-02T06:54:25;8.90;;;4.45;;
50355;SDS011;36264;51.296;-0.602;2023-07-02T06:56:50;12.88;;;5.13;;
50355;SDS011;36264;51.296;-0.602;2023-07-02T06:59:19;14.40;;;5.75;;
50355;SDS011;36264;51.296;-0.602;2023-07-02T07:01:45;13.23;;;5.23;;
50355;SDS011;36264;51.296;-0.602;2023-07-02T07:04:11;13.35;;;4.78;;
50355;SDS011;36264;51.296;-0.602;2023-07-02T07:06:36;10.95;;;5.20;;
50355;SDS011;36264;51.296;-0.602;2023-07-02T07:09:03;11.77;;;4.55;;
50355;SDS011;36264;51.296;-0.602;2023-07-02T07:11:28;10.82;;;4.70;;
50355;SDS011;36264;51.296;-0.602;2023-07-02T07:13:53;14.70;;;5.15;;
50355;SDS011;36264;51.296;-0.602;2023-07-02T07:16:19;15.88;;;4.82;;
50355;SDS011;36264;51.296;-0.602;2023-07-02T07:18:44;11.27;;;4.22;;
50355;SDS011;36264;51.296;-0.602;2023-07-02T07:21:10;14.68;;;4.88;;
50355;SDS011;36264;51.296;-0.602;2023-07-02T07:23:35;11.05;;;4.65;;
50355;SDS011;36264;51.296;-0.602;2023-07-02T07:26:01;7.88;;;3.80;;
50355;SDS011;36264;51.296;-0.602;2023-07-02T07:28:26;14.05;;;4.95;;
50355;SDS011;36264;51.296;-0.602;2023-07-02T07:30:51;8.18;;;4.20;;
50355;SDS011;36264;51.296;-0.602;2023-07-02T07:33:17;7.53;;;4.30;;
50355;SDS011;36264;51.296;-0.602;2023-07-02T07:35:42;8.85;;;4.22;;
50355;SDS011;36264;51.296;-0.602;2023-07-02T07:38:07;12.52;;;4.85;;
50355;SDS011;36264;51.296;-0.602;2023-07-02T07:40:33;8.57;;;4.40;;
50355;SDS011;36264;51.296;-0.602;2023-07-02T07:42:58;9.88;;;4.53;;
50355;SDS011;36264;51.296;-0.602;2023-07-02T07:45:23;9.45;;;3.85;;
50355;SDS011;36264;51.296;-0.602;2023-07-02T07:47:49;8.70;;;3.83;;
50355;SDS011;36264;51.296;-0.602;2023-07-02T07:50:14;9.07;;;4.20;;
50355;SDS011;36264;51.296;-0.602;2023-07-02T07:52:40;6.97;;;3.15;;
50355;SDS011;36264;51.296;-0.602;2023-07-02T07:55:07;13.45;;;4.55;;
50355;SDS011;36264;51.296;-0.602;2023-07-02T07:57:36;11.82;;;4.25;;
50355;SDS011;36264;51.296;-0.602;2023-07-02T08:00:02;11.13;;;4.28;;
50355;SDS011;36264;51.296;-0.602;2023-07-02T08:02:30;8.13;;;3.72;;
50355;SDS011;36264;51.296;-0.602;2023-07-02T08:04:55;14.35;;;4.53;;
50355;SDS011;36264;51.296;-0.602;2023-07-02T08:07:21;8.50;;;3.95;;
50355;SDS011;36264;51.296;-0.602;2023-07-02T08:09:46;12.63;;;4.97;;
50355;SDS011;36264;51.296;-0.602;2023-07-02T08:12:12;9.88;;;4.78;;
50355;SDS011;36264;51.296;-0.602;2023-07-02T08:14:38;10.68;;;4.18;;
50355;SDS011;36264;51.296;-0.602;2023-07-02T08:17:03;10.43;;;4.85;;
50355;SDS011;36264;51.296;-0.602;2023-07-02T08:19:29;8.63;;;4.18;;
50355;SDS011;36264;51.296;-0.602;2023-07-02T08:21:54;10.43;;;4.18;;
50355;SDS011;36264;51.296;-0.602;2023-07-02T08:24:19;9.10;;;4.15;;
50355;SDS011;36264;51.296;-0.602;2023-07-02T08:26:45;8.13;;;3.70;;
50355;SDS011;36264;51.296;-0.602;2023-07-02T08:29:10;7.78;;;3.58;;
50355;SDS011;36264;51.296;-0.602;2023-07-02T08:31:36;8.32;;;4.35;;
50355;SDS011;36264;51.296;-0.602;2023-07-02T08:34:01;10.85;;;4.82;;
50355;SDS011;36264;51.296;-0.602;2023-07-02T08:36:27;9.40;;;4.43;;
50355;SDS011;36264;51.296;-0.602;2023-07-02T08:38:53;9.52;;;3.88;;
50355;SDS011;36264;51.296;-0.602;2023-07-02T08:41:20;11.23;;;4.82;;
50355;SDS011;36264;51.296;-0.602;2023-07-02T08:43:45;8.60;;;3.60;;
50355;SDS011;36264;51.296;-0.602;2023-07-02T08:46:14;8.95;;;4.18;;
50355;SDS011;36264;51.296;-0.602;2023-07-02T08:48:40;10.63;;;3.90;;
50355;SDS011;36264;51.296;-0.602;2023-07-02T08:51:05;8.15;;;4.00;;
50355;SDS011;36264;51.296;-0.602;2023-07-02T08:53:31;11.98;;;4.43;;
50355;SDS011;36264;51.296;-0.602;2023-07-02T08:55:58;10.45;;;4.38;;
50355;SDS011;36264;51.296;-0.602;2023-07-02T08:58:28;10.32;;;4.25;;
50355;SDS011;36264;51.296;-0.602;2023-07-02T09:01:09;8.98;;;4.40;;
50355;SDS011;36264;51.296;-0.602;2023-07-02T09:03:39;9.38;;;3.95;;
50355;SDS011;36264;51.296;-0.602;2023-07-02T09:06:07;10.95;;;4.30;;
50355;SDS011;36264;51.296;-0.602;2023-07-02T09:08:33;14.48;;;4.45;;
50355;SDS011;36264;51.296;-0.602;2023-07-02T09:11:05;8.63;;;4.18;;
50355;SDS011;36264;51.296;-0.602;2023-07-02T09:13:41;8.52;;;3.88;;
50355;SDS011;36264;51.296;-0.602;2023-07-02T09:16:42;9.63;;;4.00;;
50355;SDS011;36264;51.296;-0.602;2023-07-02T09:19:03;7.78;;;3.30;;
50355;SDS011;36264;51.296;-0.602;2023-07-02T09:26:52;9.10;;;3.78;;
50355;SDS011;36264;51.296;-0.602;2023-07-02T09:31:59;7.80;;;3.60;;
50355;SDS011;36264;51.296;-0.602;2023-07-02T09:34:28;9.15;;;3.83;;
50355;SDS011;36264;51.296;-0.602;2023-07-02T09:36:55;10.15;;;4.38;;
50355;SDS011;36264;51.296;-0.602;2023-07-02T09:39:24;8.63;;;3.60;;
50355;SDS011;36264;51.296;-0.602;2023-07-02T09:41:57;8.95;;;3.80;;
50355;SDS011;36264;51.296;-0.602;2023-07-02T09:44:30;8.77;;;3.88;;
50355;SDS011;36264;51.296;-0.602;2023-07-02T09:47:04;8.50;;;4.00;;
50355;SDS011;36264;51.296;-0.602;2023-07-02T09:49:31;9.65;;;3.90;;
50355;SDS011;36264;51.296;-0.602;2023-07-02T09:52:01;9.82;;;3.83;;
50355;SDS011;36264;51.296;-0.602;2023-07-02T09:54:30;6.50;;;3.33;;
50355;SDS011;36264;51.296;-0.602;2023-07-02T09:56:56;5.88;;;3.35;;
50355;SDS011;36264;51.296;-0.602;2023-07-02T09:59:23;9.55;;;3.90;;
50355;SDS011;36264;51.296;-0.602;2023-07-02T10:01:49;8.38;;;4.13;;
50355;SDS011;36264;51.296;-0.602;2023-07-02T10:04:15;9.20;;;4.38;;
50355;SDS011;36264;51.296;-0.602;2023-07-02T10:09:15;8.40;;;3.35;;
50355;SDS011;36264;51.296;-0.602;2023-07-02T10:11:42;10.48;;;3.75;;
50355;SDS011;36264;51.296;-0.602;2023-07-02T10:14:08;7.28;;;3.72;;
50355;SDS011;36264;51.296;-0.602;2023-07-02T10:16:34;8.52;;;3.65;;
50355;SDS011;36264;51.296;-0.602;2023-07-02T10:19:11;6.90;;;3.30;;
50355;SDS011;36264;51.296;-0.602;2023-07-02T10:21:37;5.63;;;2.72;;
50355;SDS011;36264;51.296;-0.602;2023-07-02T10:24:36;7.28;;;3.55;;
50355;SDS011;36264;51.296;-0.602;2023-07-02T10:26:56;6.60;;;3.22;;
50355;SDS011;36264;51.296;-0.602;2023-07-02T10:29:23;6.57;;;3.20;;
50355;SDS011;36264;51.296;-0.602;2023-07-02T10:31:53;6.28;;;3.13;;
50355;SDS011;36264;51.296;-0.602;2023-07-02T10:36:54;8.82;;;3.03;;
50355;SDS011;36264;51.296;-0.602;2023-07-02T10:39:19;7.30;;;3.22;;
50355;SDS011;36264;51.296;-0.602;2023-07-02T10:41:46;11.48;;;3.53;;
50355;SDS011;36264;51.296;-0.602;2023-07-02T10:44:11;8.88;;;3.78;;
50355;SDS011;36264;51.296;-0.602;2023-07-02T10:46:43;8.25;;;3.13;;
50355;SDS011;36264;51.296;-0.602;2023-07-02T10:49:12;7.70;;;2.95;;
50355;SDS011;36264;51.296;-0.602;2023-07-02T10:51:38;7.90;;;3.22;;
50355;SDS011;36264;51.296;-0.602;2023-07-02T10:54:04;6.80;;;3.00;;
50355;SDS011;36264;51.296;-0.602;2023-07-02T10:56:30;8.93;;;3.47;;
50355;SDS011;36264;51.296;-0.602;2023-07-02T10:58:57;9.30;;;3.30;;
50355;SDS011;36264;51.296;-0.602;2023-07-02T11:01:31;6.40;;;3.05;;
50355;SDS011;36264;51.296;-0.602;2023-07-02T11:03:57;6.70;;;3.15;;
50355;SDS011;36264;51.296;-0.602;2023-07-02T11:06:25;5.72;;;2.85;;
50355;SDS011;36264;51.296;-0.602;2023-07-02T11:08:51;8.15;;;3.20;;
50355;SDS011;36264;51.296;-0.602;2023-07-02T11:11:17;7.82;;;2.90;;
50355;SDS011;36264;51.296;-0.602;2023-07-02T11:13:46;5.35;;;2.60;;
50355;SDS011;36264;51.296;-0.602;2023-07-02T11:18:49;6.40;;;2.70;;
50355;SDS011;36264;51.296;-0.602;2023-07-02T11:21:14;8.85;;;2.88;;
50355;SDS011;36264;51.296;-0.602;2023-07-02T11:23:40;5.45;;;2.72;;
50355;SDS011;36264;51.296;-0.602;2023-07-02T11:26:06;6.80;;;3.20;;
50355;SDS011;36264;51.296;-0.602;2023-07-02T11:28:31;6.75;;;2.85;;
50355;SDS011;36264;51.296;-0.602;2023-07-02T11:30:59;6.78;;;2.78;;
50355;SDS011;36264;51.296;-0.602;2023-07-02T11:33:37;6.88;;;2.85;;
50355;SDS011;36264;51.296;-0.602;2023-07-02T11:36:03;6.25;;;3.17;;
50355;SDS011;36264;51.296;-0.602;2023-07-02T11:38:30;8.52;;;2.97;;
50355;SDS011;36264;51.296;-0.602;2023-07-02T11:40:55;5.15;;;2.40;;
50355;SDS011;36264;51.296;-0.602;2023-07-02T11:43:20;6.13;;;2.30;;
50355;SDS011;36264;51.296;-0.602;2023-07-02T11:45:46;6.47;;;2.60;;
50355;SDS011;36264;51.296;-0.602;2023-07-02T11:48:11;8.52;;;3.20;;
50355;SDS011;36264;51.296;-0.602;2023-07-02T11:50:37;7.45;;;3.13;;
50355;SDS011;36264;51.296;-0.602;2023-07-02T11:53:03;6.88;;;3.10;;
50355;SDS011;36264;51.296;-0.602;2023-07-02T11:55:28;7.03;;;3.15;;
50355;SDS011;36264;51.296;-0.602;2023-07-02T11:57:53;11.10;;;3.65;;
50355;SDS011;36264;51.296;-0.602;2023-07-02T12:00:19;8.80;;;3.13;;
50355;SDS011;36264;51.296;-0.602;2023-07-02T12:02:44;8.75;;;3.15;;
50355;SDS011;36264;51.296;-0.602;2023-07-02T12:05:10;8.82;;;3.10;;
50355;SDS011;36264;51.296;-0.602;2023-07-02T12:07:35;9.13;;;3.35;;
50355;SDS011;36264;51.296;-0.602;2023-07-02T12:10:01;9.30;;;3.55;;
50355;SDS011;36264;51.296;-0.602;2023-07-02T12:12:26;6.75;;;2.80;;
50355;SDS011;36264;51.296;-0.602;2023-07-02T12:14:52;6.70;;;2.97;;
50355;SDS011;36264;51.296;-0.602;2023-07-02T12:17:17;9.25;;;3.10;;
50355;SDS011;36264;51.296;-0.602;2023-07-02T12:19:42;7.82;;;3.13;;
50355;SDS011;36264;51.296;-0.602;2023-07-02T12:22:08;6.40;;;2.65;;
50355;SDS011;36264;51.296;-0.602;2023-07-02T12:24:33;7.93;;;2.90;;
50355;SDS011;36264;51.296;-0.602;2023-07-02T12:26:59;9.40;;;3.45;;
50355;SDS011;36264;51.296;-0.602;2023-07-02T12:29:24;8.70;;;3.13;;
50355;SDS011;36264;51.296;-0.602;2023-07-02T12:31:49;7.05;;;2.78;;
50355;SDS011;36264;51.296;-0.602;2023-07-02T12:34:15;7.68;;;2.95;;
50355;SDS011;36264;51.296;-0.602;2023-07-02T12:36:40;8.07;;;3.28;;
50355;SDS011;36264;51.296;-0.602;2023-07-02T12:39:06;5.93;;;2.80;;
50355;SDS011;36264;51.296;-0.602;2023-07-02T12:41:32;10.52;;;3.38;;
50355;SDS011;36264;51.296;-0.602;2023-07-02T12:43:58;8.30;;;2.83;;
50355;SDS011;36264;51.296;-0.602;2023-07-02T12:46:24;9.32;;;2.42;;
50355;SDS011;36264;51.296;-0.602;2023-07-02T12:48:49;7.15;;;3.03;;
50355;SDS011;36264;51.296;-0.602;2023-07-02T12:51:14;12.85;;;3.55;;
50355;SDS011;36264;51.296;-0.602;2023-07-02T12:53:40;8.75;;;3.03;;
50355;SDS011;36264;51.296;-0.602;2023-07-02T12:56:05;8.82;;;3.00;;
50355;SDS011;36264;51.296;-0.602;2023-07-02T12:58:30;9.98;;;3.15;;
50355;SDS011;36264;51.296;-0.602;2023-07-02T13:00:56;9.63;;;2.88;;
50355;SDS011;36264;51.296;-0.602;2023-07-02T13:03:21;12.25;;;4.07;;
50355;SDS011;36264;51.296;-0.602;2023-07-02T13:05:48;8.57;;;2.92;;
50355;SDS011;36264;51.296;-0.602;2023-07-02T13:08:14;11.15;;;3.30;;
50355;SDS011;36264;51.296;-0.602;2023-07-02T13:10:39;7.45;;;3.42;;
50355;SDS011;36264;51.296;-0.602;2023-07-02T13:13:04;10.38;;;3.42;;
50355;SDS011;36264;51.296;-0.602;2023-07-02T13:15:30;10.10;;;3.55;;
50355;SDS011;36264;51.296;-0.602;2023-07-02T13:17:56;9.07;;;3.08;;
50355;SDS011;36264;51.296;-0.602;2023-07-02T13:20:21;11.10;;;3.47;;
50355;SDS011;36264;51.296;-0.602;2023-07-02T13:22:47;11.85;;;3.72;;
50355;SDS011;36264;51.296;-0.602;2023-07-02T13:25:12;7.50;;;3.20;;
50355;SDS011;36264;51.296;-0.602;2023-07-02T13:27:37;9.05;;;3.30;;
50355;SDS011;36264;51.296;-0.602;2023-07-02T13:30:03;9.85;;;3.65;;
50355;SDS011;36264;51.296;-0.602;2023-07-02T13:32:29;11.73;;;4.43;;
50355;SDS011;36264;51.296;-0.602;2023-07-02T13:34:54;8.30;;;3.53;;
50355;SDS011;36264;51.296;-0.602;2023-07-02T13:37:19;6.70;;;3.10;;
50355;SDS011;36264;51.296;-0.602;2023-07-02T13:39:48;6.78;;;2.83;;
50355;SDS011;36264;51.296;-0.602;2023-07-02T13:42:14;8.20;;;3.00;;
50355;SDS011;36264;51.296;-0.602;2023-07-02T13:44:41;8.82;;;3.10;;
50355;SDS011;36264;51.296;-0.602;2023-07-02T13:47:07;6.50;;;2.83;;
50355;SDS011;36264;51.296;-0.602;2023-07-02T13:49:32;8.40;;;3.00;;
50355;SDS011;36264;51.296;-0.602;2023-07-02T13:51:58;8.43;;;3.05;;
50355;SDS011;36264;51.296;-0.602;2023-07-02T13:54:23;8.35;;;2.95;;
50355;SDS011;36264;51.296;-0.602;2023-07-02T13:56:49;8.65;;;2.70;;
50355;SDS011;36264;51.296;-0.602;2023-07-02T13:59:15;7.22;;;3.03;;
50355;SDS011;36264;51.296;-0.602;2023-07-02T14:01:42;8.52;;;3.00;;
50355;SDS011;36264;51.296;-0.602;2023-07-02T14:04:08;8.73;;;3.08;;
50355;SDS011;36264;51.296;-0.602;2023-07-02T14:06:33;8.55;;;2.90;;
50355;SDS011;36264;51.296;-0.602;2023-07-02T14:08:58;7.60;;;2.50;;
50355;SDS011;36264;51.296;-0.602;2023-07-02T14:11:24;6.45;;;2.63;;
50355;SDS011;36264;51.296;-0.602;2023-07-02T14:13:52;11.48;;;3.40;;
50355;SDS011;36264;51.296;-0.602;2023-07-02T14:16:18;10.00;;;2.80;;
50355;SDS011;36264;51.296;-0.602;2023-07-02T14:18:44;10.02;;;3.00;;
50355;SDS011;36264;51.296;-0.602;2023-07-02T14:21:09;8.23;;;2.83;;
50355;SDS011;36264;51.296;-0.602;2023-07-02T14:23:35;7.55;;;2.90;;
50355;SDS011;36264;51.296;-0.602;2023-07-02T14:26:00;7.70;;;2.92;;
50355;SDS011;36264;51.296;-0.602;2023-07-02T14:28:26;7.57;;;2.70;;
50355;SDS011;36264;51.296;-0.602;2023-07-02T14:30:57;9.27;;;3.08;;
50355;SDS011;36264;51.296;-0.602;2023-07-02T14:33:24;7.28;;;2.60;;
50355;SDS011;36264;51.296;-0.602;2023-07-02T14:35:50;10.32;;;3.47;;
50355;SDS011;36264;51.296;-0.602;2023-07-02T14:38:15;7.78;;;2.63;;